Flight Track Log - Related Links

Times and Time Zones

All times are in EST time to prevent confusion due to time zone crossing. See the N1944E flight status page for this flight to view local times or setup timezone preferences in your user account.

Time Position Orientation Groundspeed Altitude Reporting Facility
EST Latitude Longitude Course Direction KTS MPH feet Rate Location/Type
Wed 09:34:26 AM 44.4550 -109.1369 237° Southwest 115 132 8,900  Level Salt Center
Wed 09:35:27 AM 44.4381 -109.1733 237° Southwest 114 131 9,900 1,131 Climbing Salt Center
Wed 09:36:28 AM 44.4192 -109.2139 237° Southwest 119 137 11,200 1,279 Climbing Salt Center
Wed 09:37:29 AM 44.3972 -109.2578 235° Southwest 129 148 12,500 1,230 Climbing Salt Center
Wed 09:38:30 AM 44.3708 -109.3044 232° Southwest 144 166 13,700 1,082 Climbing Salt Center
Wed 09:39:31 AM 44.3456 -109.3589 237° Southwest 161 185 14,700 885 Climbing Salt Center
Wed 09:40:32 AM 44.3153 -109.4167 234° Southwest 157 181 15,500 683 Climbing Salt Center
Wed 09:41:34 AM 44.2931 -109.4619 236° Southwest 147 169 16,100 293 Climbing Salt Center
Wed 09:42:35 AM 44.2703 -109.5139 239° Southwest 156 180 16,100 -49 Level Salt Center
Wed 09:43:37 AM 44.2394 -109.5786 236° Southwest 191 220 16,000 -49 Descending Salt Center
Wed 09:44:37 AM 44.1989 -109.6492 231° Southwest 204 235 16,000  Level Salt Center
Wed 09:45:38 AM 44.1692 -109.7047 233° Southwest 194 223 16,000  Level Salt Center
Wed 09:46:39 AM 44.1408 -109.7536 231° Southwest 179 206 16,000  Level Salt Center
Wed 09:47:40 AM 44.1103 -109.8131 234° Southwest 171 197 16,000 -98 Level Salt Center
Wed 09:48:41 AM 44.0833 -109.8686 236° Southwest 177 204 15,800 -98 Descending Salt Center
Wed 09:49:42 AM 44.0492 -109.9319 233° Southwest 182 209 15,800  Level Salt Center
Wed 09:50:43 AM 44.0186 -109.9886 233° Southwest 187 215 15,800  Level Salt Center
Wed 09:51:45 AM 43.9903 -110.0433 234° Southwest 185 213 15,800 -439 Level Salt Center
Wed 09:52:46 AM 43.9572 -110.1097 235° Southwest 186 214 14,900 -934 Descending Salt Center
Wed 09:53:47 AM 43.9239 -110.1719 233° Southwest 200 230 13,900 -393 Descending Salt Center
Wed 09:54:48 AM 43.8867 -110.2317 229° Southwest 209 241 14,100 98 Climbing Salt Center
Wed 09:55:49 AM 43.8514 -110.2931 231° Southwest 198 228 14,100 -146 Level Salt Center
Wed 09:56:51 AM 43.8256 -110.3456 236° Southwest 186 214 13,800 -634 Descending Salt Center
Wed 09:57:52 AM 43.7936 -110.4072 234° Southwest 180 207 12,800 -836 Descending Salt Center
Wed 09:58:53 AM 43.7614 -110.4678 234° Southwest 188 216 12,100 -683 Descending Salt Center
Wed 09:59:55 AM 43.7322 -110.5225 234° Southwest 193 222 11,400 -1,020 Descending Salt Center
Wed 10:01:20 AM 43.6803 -110.6022 228° Southwest 166 191 9,600 -1,102 Descending Salt Center
Wed 10:02:22 AM 43.6361 -110.6358 209° Southwest 178 205 8,700 -585 Descending Salt Center
Wed 10:03:23 AM 43.5958 -110.6706 212° Southwest 171 197 8,400 -541 Descending Salt Center
Wed 10:04:24 AM 43.5694 -110.7017 221° Southwest 142 163 7,600 -683 Descending Salt Center
Wed 10:05:26 AM 43.5728 -110.7483 276° West 130 150 7,000 -439 Descending Salt Center
Wed 10:06:27 AM 43.5986 -110.7428 North 121 139 6,700 -295 Descending Salt Center

Login

Don't have an account? Register now (free) for customized features, flight alerts, and more!